Time;durP1;ratioP1;P1;durP2;ratioP2;P2;SDS_P1;SDS_P2;PMS_P1;PMS_P2;Temp;Humidity;BMP_temperature;BMP_pressure;BME280_temperature;BME280_humidity;BME280_pressure;Samples;Min_cycle;Max_cycle;Signal;HPM_P1;HPM_P2
2022/12/19 00:00:31;;;;;;;0.40;0.30;;;;;;;10.80;92.07;96665.91;5113791;28;20909;-54
2022/12/19 00:02:59;;;;;;;0.40;0.30;;;;;;;11.05;95.89;96663.69;5113736;28;20959;-54
2022/12/19 00:05:27;;;;;;;0.50;0.30;;;;;;;10.83;93.19;96665.41;5113991;28;20436;-54
2022/12/19 00:07:56;;;;;;;0.60;0.40;;;;;;;10.73;94.16;96662.56;5113496;28;20873;-55
2022/12/19 00:10:25;;;;;;;0.40;0.30;;;;;;;10.64;95.53;96669.28;5113905;28;20511;-54
2022/12/19 00:12:55;;;;;;;0.53;0.50;;;;;;;10.82;100.00;96682.38;5113284;28;20431;-55
2022/12/19 00:15:23;;;;;;;0.60;0.60;;;;;;;10.66;100.00;96677.81;5113275;28;20565;-55
2022/12/19 00:17:52;;;;;;;0.63;0.53;;;;;;;10.56;96.08;96678.44;5113317;28;20430;-55
2022/12/19 00:20:20;;;;;;;1.60;0.50;;;;;;;10.83;98.10;96676.00;5113202;28;20929;-54
2022/12/19 00:22:48;;;;;;;0.50;0.50;;;;;;;10.55;94.52;96682.09;5113514;28;20499;-54
2022/12/19 00:25:18;;;;;;;0.57;0.30;;;;;;;10.75;94.62;96679.06;5113359;28;20418;-54
2022/12/19 00:27:47;;;;;;;0.40;0.33;;;;;;;10.71;94.61;96683.22;5113171;28;20440;-54
2022/12/19 00:30:17;;;;;;;0.30;0.30;;;;;;;10.48;93.97;96685.94;5112963;28;20432;-54
2022/12/19 00:32:46;;;;;;;0.40;0.30;;;;;;;10.42;92.13;96687.72;5112910;28;20438;-55
2022/12/19 00:35:14;;;;;;;0.70;0.70;;;;;;;10.53;92.26;96686.03;5113147;28;20556;-54
2022/12/19 00:37:43;;;;;;;0.40;0.30;;;;;;;10.57;92.37;96689.84;5112825;28;20431;-54
2022/12/19 00:40:16;;;;;;;0.40;0.37;;;;;;;10.35;93.59;96694.19;5113198;28;20484;-54
2022/12/19 00:42:44;;;;;;;4.70;0.60;;;;;;;10.16;93.93;96701.47;5112972;28;20433;-54
2022/12/19 00:45:24;;;;;;;0.50;0.40;;;;;;;10.14;94.30;96683.13;5111897;28;20446;-54
2022/12/19 00:47:52;;;;;;;0.60;0.60;;;;;;;10.15;94.96;96705.94;5112912;28;20427;-54
2022/12/19 00:50:21;;;;;;;0.50;0.50;;;;;;;10.18;94.42;96702.03;5112733;28;20473;-54
2022/12/19 00:52:49;;;;;;;0.63;0.63;;;;;;;10.30;93.18;96702.81;5112762;28;20418;-54
2022/12/19 00:55:17;;;;;;;0.40;0.30;;;;;;;10.36;92.74;96698.41;5112869;28;20483;-54
2022/12/19 00:57:47;;;;;;;0.50;0.50;;;;;;;10.49;94.26;96693.66;5112994;28;20814;-54
2022/12/19 01:00:17;;;;;;;0.33;0.30;;;;;;;10.48;92.32;96691.25;5112438;28;20468;-54
2022/12/19 01:02:46;;;;;;;4.80;0.30;;;;;;;9.78;93.96;96582.75;5112669;28;20422;-54
2022/12/19 01:05:15;;;;;;;0.50;0.50;;;;;;;10.44;92.97;96700.72;5112556;28;20481;-54
2022/12/19 01:07:43;;;;;;;0.30;0.20;;;;;;;10.35;92.79;96692.31;5112575;28;20459;-54
2022/12/19 01:10:12;;;;;;;0.80;0.80;;;;;;;10.38;92.96;96688.38;5112488;28;20435;-54
2022/12/19 01:12:45;;;;;;;0.30;0.20;;;;;;;10.63;92.65;96692.34;5112649;28;20652;-54
2022/12/19 01:15:14;;;;;;;1.43;0.30;;;;;;;10.90;97.03;96689.97;5112421;28;20467;-54
2022/12/19 01:17:43;;;;;;;1.33;1.33;;;;;;;10.59;93.04;96688.56;5112687;28;20447;-54
2022/12/19 01:20:16;;;;;;;0.40;0.30;;;;;;;9.44;92.88;96509.47;5111051;28;20942;-54
2022/12/19 01:22:57;;;;;;;0.83;0.83;;;;;;;10.49;91.64;96679.59;5112697;28;20493;-54
2022/12/19 01:25:27;;;;;;;0.30;0.30;;;;;;;10.69;92.90;96696.72;5112546;28;20436;-54
2022/12/19 01:27:56;;;;;;;1.47;1.40;;;;;;;10.99;94.92;96695.66;5112307;28;20432;-54
2022/12/19 01:30:25;;;;;;;0.40;0.30;;;;;;;10.77;91.78;96692.88;5112317;28;20425;-54
2022/12/19 01:32:54;;;;;;;0.30;0.30;;;;;;;10.73;92.64;96686.44;5112552;28;20499;-55
2022/12/19 01:35:24;;;;;;;0.57;0.53;;;;;;;10.70;92.61;96686.94;5112036;28;20868;-54
2022/12/19 01:37:53;;;;;;;1.37;0.33;;;;;;;10.59;89.64;96695.72;5112349;28;20421;-54
2022/12/19 01:40:37;;;;;;;0.30;0.20;;;;;;;10.94;92.21;96682.31;5112680;28;20456;-54
2022/12/19 01:43:06;;;;;;;0.30;0.20;;;;;;;10.02;88.43;96631.16;5111507;28;20484;-54
2022/12/19 01:45:36;;;;;;;0.47;0.47;;;;;;;10.80;93.20;96687.13;5112089;28;20442;-54
2022/12/19 01:48:17;;;;;;;0.40;0.30;;;;;;;10.71;93.38;96688.53;5113198;28;20969;-54
2022/12/19 01:50:58;;;;;;;4.63;0.70;;;;;;;10.48;89.62;96691.25;5116273;28;20430;-54
2022/12/19 01:53:34;;;;;;;0.93;0.93;;;;;;;10.49;92.36;96692.88;5116300;28;20405;-54
2022/12/19 01:56:12;;;;;;;1.47;1.47;;;;;;;10.75;94.32;96679.06;5116318;28;20470;-54
2022/12/19 01:58:46;;;;;;;0.67;0.67;;;;;;;10.57;90.70;96692.50;5116402;28;20513;-54
2022/12/19 02:01:16;;;;;;;0.40;0.30;;;;;;;10.32;88.55;96676.09;5116008;28;20471;-54
2022/12/19 02:03:46;;;;;;;0.30;0.20;;;;;;;10.03;92.90;96680.47;5115186;28;20442;-55
2022/12/19 02:06:19;;;;;;;1.57;1.47;;;;;;;9.99;92.11;96681.97;5115907;28;20524;-55
2022/12/19 02:08:48;;;;;;;1.00;1.00;;;;;;;10.08;91.72;96683.22;5116028;28;20996;-55
2022/12/19 02:11:17;;;;;;;0.93;0.77;;;;;;;10.05;90.86;96654.56;5116248;28;20448;-54
2022/12/19 02:13:46;;;;;;;0.57;0.57;;;;;;;10.27;93.59;96679.41;5115738;28;20439;-54
2022/12/19 02:16:26;;;;;;;1.33;0.67;;;;;;;10.19;92.29;96671.84;5116045;28;20460;-55
2022/12/19 02:19:07;;;;;;;0.57;0.50;;;;;;;10.42;92.52;96682.41;5115677;28;20527;-54
2022/12/19 02:21:50;;;;;;;0.30;0.20;;;;;;;10.36;93.02;96680.69;5115474;28;20925;-55
2022/12/19 02:25:00;;;;;;;0.40;0.30;;;;;;;10.31;91.83;96688.53;5115136;28;20855;-55
2022/12/19 02:28:10;;;;;;;0.50;0.50;;;;;;;10.28;98.74;96677.56;5115816;28;20421;-55
2022/12/19 02:30:52;;;;;;;2.27;0.50;;;;;;;10.22;91.29;96692.56;5115379;28;20430;-54
2022/12/19 02:33:31;;;;;;;0.67;0.67;;;;;;;9.94;90.92;96695.91;5115704;28;20412;-54
2022/12/19 02:36:08;;;;;;;0.80;0.80;;;;;;;9.81;92.57;96698.00;5115643;28;20518;-54
2022/12/19 02:38:44;;;;;;;0.73;0.73;;;;;;;9.79;93.31;96689.47;5115136;28;20479;-53
2022/12/19 02:41:20;;;;;;;1.13;1.03;;;;;;;9.61;90.21;96669.22;5115196;28;20453;-53
2022/12/19 02:43:51;;;;;;;0.40;0.40;;;;;;;9.62;91.55;96685.88;5115455;28;20829;-54
2022/12/19 02:46:28;;;;;;;0.30;0.27;;;;;;;10.01;99.13;96701.09;5115120;28;20452;-54
2022/12/19 02:48:58;;;;;;;0.40;0.30;;;;;;;9.91;96.59;96700.88;5114937;28;20469;-54
2022/12/19 02:51:26;;;;;;;0.80;0.63;;;;;;;9.97;93.58;96689.34;5114650;28;20531;-54
2022/12/19 02:53:54;;;;;;;0.50;0.47;;;;;;;9.99;93.00;96697.88;5115421;28;20427;-54
2022/12/19 02:56:43;;;;;;;0.90;0.77;;;;;;;9.90;91.64;96686.81;5114617;28;20469;-54
2022/12/19 02:59:32;;;;;;;0.73;0.73;;;;;;;9.98;94.03;96697.06;5114623;28;20438;-54
2022/12/19 03:02:07;;;;;;;0.87;0.40;;;;;;;10.03;94.06;96689.22;5114804;28;20468;-54
2022/12/19 03:04:44;;;;;;;0.83;0.83;;;;;;;9.76;90.53;96698.69;5115119;28;20460;-54
2022/12/19 03:07:22;;;;;;;2.57;0.90;;;;;;;9.37;92.56;96657.00;5114770;28;20894;-54
2022/12/19 03:09:58;;;;;;;0.80;0.70;;;;;;;10.02;93.29;96703.50;5114249;28;20512;-54
2022/12/19 03:12:32;;;;;;;0.60;0.60;;;;;;;9.99;90.19;96696.00;5114946;28;20892;-54
2022/12/19 03:15:02;;;;;;;2.00;1.90;;;;;;;10.28;90.55;96712.03;5114574;28;20434;-54
2022/12/19 03:17:36;;;;;;;0.40;0.40;;;;;;;10.33;90.57;96701.53;5114620;28;20521;-54
2022/12/19 03:20:11;;;;;;;0.47;0.47;;;;;;;10.03;97.24;96702.47;5114739;28;20875;-53
2022/12/19 03:22:39;;;;;;;0.67;0.67;;;;;;;10.06;90.49;96711.81;5114484;28;20439;-54
2022/12/19 03:25:08;;;;;;;0.47;0.40;;;;;;;9.96;90.03;96700.97;5114436;28;20439;-54
2022/12/19 03:27:39;;;;;;;0.40;0.30;;;;;;;9.98;88.76;96699.72;5113446;28;20420;-54
2022/12/19 03:30:10;;;;;;;0.40;0.40;;;;;;;8.63;87.31;96533.28;5114643;28;20474;-54
2022/12/19 03:32:43;;;;;;;1.27;1.17;;;;;;;9.75;89.63;96698.91;5114400;28;20434;-54
2022/12/19 03:35:17;;;;;;;1.30;0.43;;;;;;;9.78;87.91;96701.91;5114488;28;20436;-54
2022/12/19 03:37:49;;;;;;;1.10;1.07;;;;;;;9.95;95.60;96718.72;5114097;28;20426;-54
2022/12/19 03:40:20;;;;;;;0.30;0.20;;;;;;;10.11;90.63;96723.31;5114116;28;20432;-54
2022/12/19 03:43:08;;;;;;;0.60;0.60;;;;;;;9.83;86.24;96719.75;5114445;28;20490;-54
2022/12/19 03:45:47;;;;;;;0.80;0.80;;;;;;;9.65;89.96;96728.59;5113964;28;20956;-54
2022/12/19 03:48:22;;;;;;;1.03;1.03;;;;;;;9.86;90.30;96725.41;5114043;28;20463;-55
2022/12/19 03:51:00;;;;;;;1.07;1.07;;;;;;;9.57;86.22;96686.56;5113973;28;20423;-55
2022/12/19 03:53:41;;;;;;;1.30;0.73;;;;;;;9.72;88.14;96737.22;5114262;28;20431;-55
2022/12/19 03:56:17;;;;;;;0.60;0.60;;;;;;;9.84;88.85;96745.19;5113778;28;20487;-54
2022/12/19 03:58:52;;;;;;;0.40;0.30;;;;;;;9.57;88.56;96713.03;5113762;28;20426;-54
2022/12/19 04:01:21;;;;;;;0.30;0.20;;;;;;;9.52;87.86;96744.69;5113785;28;21008;-54
2022/12/19 04:03:52;;;;;;;0.40;0.30;;;;;;;9.33;88.04;96751.09;5113920;28;20427;-54
2022/12/19 04:06:20;;;;;;;2.13;1.93;;;;;;;9.41;86.84;96737.53;5113739;28;20448;-54
2022/12/19 04:08:49;;;;;;;0.50;0.43;;;;;;;9.38;87.39;96745.94;5113460;28;20411;-55
2022/12/19 04:11:20;;;;;;;1.63;1.53;;;;;;;9.31;87.62;96742.59;5112620;28;20417;-55
2022/12/19 04:13:53;;;;;;;0.70;0.67;;;;;;;9.34;88.70;96748.22;5113463;28;20468;-55
2022/12/19 04:16:28;;;;;;;0.67;0.67;;;;;;;9.35;87.21;96752.47;5113393;28;20465;-55
2022/12/19 04:19:03;;;;;;;2.73;1.63;;;;;;;9.22;87.70;96760.59;5113303;28;20430;-55
2022/12/19 04:21:37;;;;;;;0.40;0.30;;;;;;;9.51;87.06;96751.81;5113242;28;20415;-54
2022/12/19 04:24:10;;;;;;;2.70;2.50;;;;;;;9.33;86.61;96751.09;5113308;28;20412;-54
2022/12/19 04:26:41;;;;;;;0.60;0.60;;;;;;;9.51;90.68;96757.09;5113476;28;20550;-55
2022/12/19 04:29:13;;;;;;;0.50;0.37;;;;;;;9.38;87.46;96745.94;5113275;28;20437;-55
2022/12/19 04:31:43;;;;;;;0.47;0.47;;;;;;;9.05;85.06;96685.56;5113126;28;20434;-55
2022/12/19 04:34:14;;;;;;;0.40;0.40;;;;;;;9.29;86.01;96756.03;5112705;28;20432;-55
2022/12/19 04:36:42;;;;;;;0.47;0.47;;;;;;;9.26;85.05;96745.88;5113035;28;20518;-55
2022/12/19 04:39:11;;;;;;;3.27;0.50;;;;;;;9.63;90.26;96753.69;5113069;28;20432;-55
2022/12/19 04:41:39;;;;;;;0.40;0.30;;;;;;;9.72;88.06;96749.66;5113078;28;20455;-55
2022/12/19 04:44:07;;;;;;;0.53;0.50;;;;;;;9.76;86.69;96750.84;5113282;28;20427;-55
2022/12/19 04:46:36;;;;;;;0.50;0.30;;;;;;;9.64;85.88;96748.16;5112834;28;20514;-55
2022/12/19 04:49:04;;;;;;;0.63;0.63;;;;;;;9.51;84.27;96751.81;5112880;28;20481;-55
2022/12/19 04:51:34;;;;;;;0.63;0.63;;;;;;;9.76;85.54;96761.41;5112722;28;20445;-55
2022/12/19 04:54:02;;;;;;;4.63;1.03;;;;;;;9.94;84.39;96759.47;5112464;28;20974;-55
2022/12/19 04:56:30;;;;;;;0.50;0.30;;;;;;;10.00;84.33;96765.69;5113049;28;20836;-54
2022/12/19 04:59:00;;;;;;;0.70;0.40;;;;;;;9.90;83.30;96758.31;5112908;28;20421;-54
2022/12/19 05:01:28;;;;;;;0.70;0.70;;;;;;;9.72;83.29;96747.81;5112686;28;20471;-55
2022/12/19 05:03:57;;;;;;;0.80;0.80;;;;;;;9.74;84.09;96774.88;5112980;28;20435;-55
2022/12/19 05:06:32;;;;;;;1.07;1.07;;;;;;;9.33;82.53;96669.88;5112486;28;20932;-54
2022/12/19 05:09:01;;;;;;;0.40;0.40;;;;;;;9.65;82.19;96770.97;5112781;28;20416;-53
2022/12/19 05:11:30;;;;;;;0.50;0.43;;;;;;;9.22;83.29;96783.59;5112857;28;20428;-55
2022/12/19 05:13:59;;;;;;;0.77;0.77;;;;;;;9.37;82.87;96784.00;5113027;28;20428;-55
2022/12/19 05:16:27;;;;;;;1.20;1.10;;;;;;;9.38;83.21;96789.09;5112453;28;20470;-55
2022/12/19 05:18:55;;;;;;;0.60;0.60;;;;;;;8.87;83.32;96783.47;5112338;28;20423;-54
2022/12/19 05:21:24;;;;;;;0.40;0.30;;;;;;;8.87;87.31;96725.28;5112240;28;20428;-54
2022/12/19 05:23:52;;;;;;;0.43;0.40;;;;;;;9.10;83.47;96790.69;5111903;28;20461;-54
2022/12/19 05:26:22;;;;;;;0.47;0.40;;;;;;;9.25;84.16;96799.84;5112148;28;20413;-55
2022/12/19 05:28:51;;;;;;;1.57;1.47;;;;;;;9.20;84.66;96804.19;5111963;28;20441;-55
2022/12/19 05:31:21;;;;;;;0.40;0.30;;;;;;;8.82;83.36;96780.69;5112253;28;20454;-55
2022/12/19 05:33:50;;;;;;;0.60;0.60;;;;;;;9.10;83.31;96802.09;5111973;28;20519;-55
2022/12/19 05:36:19;;;;;;;0.30;0.30;;;;;;;9.09;83.96;96805.75;5112487;28;20498;-55
2022/12/19 05:38:47;;;;;;;0.63;0.63;;;;;;;9.03;83.70;96800.56;5111487;28;20438;-55
2022/12/19 05:41:17;;;;;;;0.53;0.53;;;;;;;9.38;81.89;96807.59;5111570;28;20514;-55
2022/12/19 05:43:52;;;;;;;0.40;0.37;;;;;;;9.32;81.94;96805.03;5112228;28;20551;-55
2022/12/19 05:46:23;;;;;;;1.37;0.70;;;;;;;9.27;80.90;96824.22;5112211;28;20425;-54
2022/12/19 05:48:51;;;;;;;4.13;0.57;;;;;;;9.37;81.32;96818.41;5112013;28;20478;-55
2022/12/19 05:51:20;;;;;;;1.17;0.50;;;;;;;9.67;80.03;96816.53;5112136;28;20509;-55
2022/12/19 05:53:49;;;;;;;0.50;0.50;;;;;;;9.37;80.22;96819.22;5111180;28;20435;-55
2022/12/19 05:56:18;;;;;;;0.40;0.30;;;;;;;9.44;79.98;96817.28;5111688;28;20428;-55
2022/12/19 05:58:49;;;;;;;1.07;0.50;;;;;;;9.52;80.29;96821.44;5111756;28;20476;-54
2022/12/19 06:01:19;;;;;;;6.60;0.70;;;;;;;9.49;79.75;96827.19;5111229;28;20503;-54
2022/12/19 06:03:48;;;;;;;0.40;0.40;;;;;;;9.28;79.73;96831.16;5111754;28;20916;-54
2022/12/19 06:06:18;;;;;;;0.77;0.77;;;;;;;9.65;80.40;96838.97;5111653;28;20420;-55
2022/12/19 06:08:47;;;;;;;0.50;0.40;;;;;;;9.50;78.27;96831.44;5111742;28;20450;-55
2022/12/19 06:11:15;;;;;;;1.53;0.43;;;;;;;9.67;78.42;96836.91;5111829;28;20467;-55
2022/12/19 06:13:43;;;;;;;0.40;0.30;;;;;;;9.21;77.93;96782.00;5112118;28;20423;-55
2022/12/19 06:16:14;;;;;;;0.40;0.30;;;;;;;9.08;78.96;96813.91;5110294;28;20827;-55
2022/12/19 06:18:44;;;;;;;0.40;0.40;;;;;;;9.27;78.51;96837.47;5109572;28;20475;-55
2022/12/19 06:21:15;;;;;;;0.50;0.30;;;;;;;9.29;79.46;96842.53;5110355;28;20427;-55
2022/12/19 06:23:44;;;;;;;0.30;0.20;;;;;;;9.45;79.36;96837.44;5110500;28;20453;-55
2022/12/19 06:26:15;;;;;;;0.40;0.30;;;;;;;9.16;78.72;96848.00;5110109;28;20431;-55
2022/12/19 06:28:47;;;;;;;0.50;0.30;;;;;;;9.34;78.58;96837.38;5110346;28;20420;-55
2022/12/19 06:31:18;;;;;;;0.60;0.57;;;;;;;8.91;78.65;96796.00;5111133;28;20432;-55
2022/12/19 06:33:46;;;;;;;0.50;0.30;;;;;;;9.62;79.77;96858.75;5111405;28;20913;-55
2022/12/19 06:36:18;;;;;;;0.40;0.30;;;;;;;9.66;82.30;96861.78;5115005;28;20429;-56
2022/12/19 06:38:47;;;;;;;2.20;0.80;;;;;;;9.59;79.53;96875.91;5114686;28;20550;-55
2022/12/19 06:44:02;;;;;;;1.80;1.10;;;;;;;9.62;79.87;96873.84;5115187;28;20424;-56
2022/12/19 06:46:32;;;;;;;1.13;0.77;;;;;;;9.34;79.85;96875.22;5115346;28;20425;-55
2022/12/19 06:49:00;;;;;;;0.70;0.70;;;;;;;9.33;78.01;96872.81;5114784;28;20504;-54
2022/12/19 06:51:29;;;;;;;1.57;0.47;;;;;;;9.36;78.95;96844.03;5114841;28;20464;-54
2022/12/19 06:53:58;;;;;;;0.50;0.43;;;;;;;9.34;78.03;96863.81;5114814;28;20964;-54
2022/12/19 06:56:26;;;;;;;0.40;0.40;;;;;;;9.46;78.82;96880.59;5114908;28;20570;-54
2022/12/19 06:58:55;;;;;;;0.77;0.40;;;;;;;9.55;76.64;96889.81;5114894;28;20475;-54
2022/12/19 07:01:37;;;;;;;0.97;0.97;;;;;;;9.26;77.30;96882.69;5114851;28;20523;-55
2022/12/19 07:04:11;;;;;;;1.70;0.93;;;;;;;9.54;76.92;96882.91;5115042;28;20440;-55
2022/12/19 07:06:39;;;;;;;0.40;0.40;;;;;;;9.14;76.88;96872.00;5114851;28;20897;-55
2022/12/19 07:09:16;;;;;;;0.60;0.40;;;;;;;9.61;76.24;96890.78;5114551;28;20423;-55
2022/12/19 07:11:44;;;;;;;3.73;1.03;;;;;;;9.42;75.15;96890.81;5114973;28;20422;-55
2022/12/19 07:14:12;;;;;;;1.27;1.27;;;;;;;9.50;75.50;96892.31;5114378;28;20891;-54
2022/12/19 07:16:41;;;;;;;0.70;0.70;;;;;;;9.13;75.57;96822.81;5114627;28;20507;-55
2022/12/19 07:19:11;;;;;;;0.40;0.40;;;;;;;9.72;74.34;96903.22;5114309;28;20471;-55
2022/12/19 07:21:40;;;;;;;0.50;0.50;;;;;;;9.81;73.96;96910.66;5114507;28;20777;-54
2022/12/19 07:24:09;;;;;;;0.70;0.70;;;;;;;9.72;73.48;96908.53;5114605;28;20486;-55
2022/12/19 07:26:38;;;;;;;0.40;0.30;;;;;;;10.04;72.03;96894.00;5114161;28;20558;-53
2022/12/19 07:29:07;;;;;;;0.30;0.20;;;;;;;9.84;72.87;96902.22;5114003;28;20516;-53
2022/12/19 07:31:35;;;;;;;1.53;1.43;;;;;;;9.41;73.04;96904.25;5114059;28;20445;-54
2022/12/19 07:34:04;;;;;;;1.10;1.00;;;;;;;9.51;74.33;96904.53;5114194;28;20493;-53
2022/12/19 07:36:34;;;;;;;0.40;0.30;;;;;;;9.52;72.36;96914.09;5113734;28;20531;-54
2022/12/19 07:39:02;;;;;;;6.83;1.00;;;;;;;9.29;72.02;96920.06;5113451;28;20466;-54
2022/12/19 07:41:30;;;;;;;0.40;0.37;;;;;;;9.39;72.80;96917.69;5113222;28;20447;-54
2022/12/19 07:43:59;;;;;;;0.70;0.70;;;;;;;9.26;72.06;96927.66;5113812;28;20420;-54
2022/12/19 07:46:29;;;;;;;0.70;0.50;;;;;;;9.35;72.91;96929.78;5112712;28;20421;-53
2022/12/19 07:49:00;;;;;;;0.57;0.57;;;;;;;9.47;71.84;96933.28;5113043;28;20551;-54
2022/12/19 07:51:29;;;;;;;0.50;0.30;;;;;;;9.34;72.82;96930.78;5113094;28;20488;-54
2022/12/19 07:53:59;;;;;;;3.50;0.63;;;;;;;9.33;71.89;96936.31;5113351;28;20439;-54
2022/12/19 07:56:28;;;;;;;0.87;0.87;;;;;;;9.07;71.92;96889.00;5112946;28;20425;-55
2022/12/19 07:58:57;;;;;;;1.43;0.53;;;;;;;9.41;74.07;96885.75;5113334;28;20920;-54
2022/12/19 08:01:25;;;;;;;0.70;0.40;;;;;;;9.77;71.85;96929.84;5113600;28;20423;-55
2022/12/19 08:03:57;;;;;;;0.50;0.50;;;;;;;9.88;69.86;96932.53;5113017;28;20961;-54
2022/12/19 08:06:26;;;;;;;0.50;0.50;;;;;;;9.73;69.43;96932.13;5113123;28;20871;-54
2022/12/19 08:08:55;;;;;;;0.40;0.30;;;;;;;9.72;68.44;96922.56;5113416;28;20411;-55
2022/12/19 08:11:28;;;;;;;0.43;0.40;;;;;;;9.52;67.86;96920.19;5113435;28;20580;-54
2022/12/19 08:13:58;;;;;;;0.30;0.30;;;;;;;9.65;70.99;96943.03;5113600;28;20427;-57
2022/12/19 08:16:27;;;;;;;0.30;0.20;;;;;;;9.77;69.28;96904.16;5113035;28;20749;-56
2022/12/19 08:18:56;;;;;;;0.40;0.30;;;;;;;9.95;69.42;96898.81;5112963;28;20485;-54
2022/12/19 08:21:25;;;;;;;0.30;0.20;;;;;;;10.31;67.70;96940.28;5113026;28;20455;-55
2022/12/19 08:23:53;;;;;;;0.40;0.30;;;;;;;10.36;68.45;96932.47;5112928;28;20422;-55
2022/12/19 08:26:24;;;;;;;1.17;0.60;;;;;;;10.56;69.02;96946.22;5112689;28;20789;-55
2022/12/19 08:28:56;;;;;;;0.40;0.30;;;;;;;10.69;70.40;96932.75;5113291;28;20439;-55
2022/12/19 08:31:26;;;;;;;0.47;0.47;;;;;;;10.72;67.34;96934.94;5112904;28;20465;-55
2022/12/19 08:33:57;;;;;;;0.53;0.50;;;;;;;10.89;69.77;96937.69;5112860;28;20441;-55
2022/12/19 08:36:25;;;;;;;0.50;0.33;;;;;;;10.53;68.26;96909.53;5112982;28;20467;-55
2022/12/19 08:38:54;;;;;;;0.50;0.33;;;;;;;10.98;68.69;96944.25;5113066;28;20467;-55
2022/12/19 08:41:23;;;;;;;0.40;0.40;;;;;;;10.55;67.39;96939.28;5112886;28;20432;-55
2022/12/19 08:43:54;;;;;;;0.40;0.40;;;;;;;10.87;66.96;96942.41;5112842;28;20516;-55
2022/12/19 08:46:23;;;;;;;0.40;0.30;;;;;;;11.19;70.44;96945.50;5112566;28;20477;-55
2022/12/19 08:48:51;;;;;;;0.40;0.30;;;;;;;11.22;66.43;96940.53;5112226;28;20483;-55
2022/12/19 08:51:20;;;;;;;0.70;0.63;;;;;;;11.37;65.10;96946.16;5112425;28;20449;-56
2022/12/19 08:53:48;;;;;;;0.40;0.30;;;;;;;11.62;66.86;96924.63;5112509;28;20498;-56
2022/12/19 08:56:19;;;;;;;0.40;0.40;;;;;;;11.81;71.06;96942.03;5112370;28;20862;-56
2022/12/19 08:58:48;;;;;;;0.30;0.20;;;;;;;11.88;63.09;96947.19;5112498;28;20472;-57
2022/12/19 09:01:22;;;;;;;0.50;0.30;;;;;;;11.30;63.48;96937.53;5112292;28;20969;-57
2022/12/19 09:03:51;;;;;;;0.40;0.30;;;;;;;12.14;70.58;96940.50;5112245;28;20484;-56
2022/12/19 09:06:39;;;;;;;0.40;0.30;;;;;;;11.75;62.85;96942.97;5112142;28;20824;-55
2022/12/19 09:09:08;;;;;;;0.47;0.47;;;;;;;11.66;61.55;96935.59;5112326;28;20422;-55
2022/12/19 09:11:36;;;;;;;0.40;0.30;;;;;;;11.85;60.84;96929.06;5112187;28;20426;-55
2022/12/19 09:14:15;;;;;;;1.03;0.73;;;;;;;12.09;61.77;96923.41;5112209;28;20435;-56
2022/12/19 09:16:50;;;;;;;0.60;0.60;;;;;;;12.08;60.49;96903.19;5112230;28;20957;-56
2022/12/19 09:19:18;;;;;;;6.37;2.20;;;;;;;12.47;68.13;96911.28;5112026;28;20519;-56
2022/12/19 09:21:46;;;;;;;0.30;0.23;;;;;;;12.64;61.92;96870.31;5112123;28;20430;-56
2022/12/19 09:24:15;;;;;;;1.37;0.60;;;;;;;13.36;57.71;96902.19;5112373;28;20834;-55
2022/12/19 09:26:44;;;;;;;0.50;0.40;;;;;;;13.15;57.14;96908.31;5112385;28;20446;-55
2022/12/19 09:29:12;;;;;;;0.50;0.40;;;;;;;13.47;54.54;96825.88;5112025;28;20841;-56
2022/12/19 09:31:50;;;;;;;0.40;0.30;;;;;;;14.65;54.68;96846.13;5112195;28;20419;-57
2022/12/19 09:34:24;;;;;;;1.20;0.57;;;;;;;14.04;53.00;96906.16;5112217;28;20459;-57
2022/12/19 09:37:06;;;;;;;0.40;0.40;;;;;;;13.70;55.56;96908.19;5111846;28;20420;-56
2022/12/19 09:39:35;;;;;;;0.40;0.40;;;;;;;13.22;55.09;96906.28;5111386;28;20464;-55
2022/12/19 09:42:21;;;;;;;0.53;0.50;;;;;;;13.20;55.00;96895.88;5112098;28;20446;-55
2022/12/19 09:45:04;;;;;;;0.40;0.40;;;;;;;13.14;55.57;96893.38;5111903;28;20963;-56
2022/12/19 09:47:39;;;;;;;0.90;0.73;;;;;;;12.88;56.02;96904.69;5112104;28;20529;-56
2022/12/19 09:50:26;;;;;;;0.40;0.40;;;;;;;12.05;55.85;96895.69;5111346;28;20530;-56
2022/12/19 09:53:00;;;;;;;0.43;0.30;;;;;;;12.07;61.16;96856.41;5111810;28;20520;-56
2022/12/19 09:55:33;;;;;;;0.50;0.30;;;;;;;11.97;58.09;96864.19;5111752;28;20435;-56
2022/12/19 09:58:08;;;;;;;0.60;0.60;;;;;;;12.18;59.13;96902.56;5111740;28;20445;-57
2022/12/19 10:00:42;;;;;;;1.20;0.47;;;;;;;11.70;62.08;96825.19;5111793;28;20478;-57
2022/12/19 10:03:21;;;;;;;0.40;0.40;;;;;;;10.39;58.12;96679.41;5111892;28;20446;-57
2022/12/19 10:05:54;;;;;;;0.40;0.30;;;;;;;12.04;57.31;96795.75;5111724;28;20440;-57
2022/12/19 10:08:43;;;;;;;0.40;0.30;;;;;;;12.57;59.25;96887.50;5111931;28;20442;-56
2022/12/19 10:11:49;;;;;;;0.40;0.30;;;;;;;12.48;58.94;96873.00;5115625;28;20450;-57
2022/12/19 10:14:53;;;;;;;0.70;0.60;;;;;;;12.58;57.52;96884.59;5115214;28;20448;-57
2022/12/19 10:17:31;;;;;;;0.30;0.30;;;;;;;13.25;56.32;96879.16;5115472;28;20431;-56
2022/12/19 10:20:14;;;;;;;1.17;1.07;;;;;;;12.96;55.86;96872.34;5115489;28;20977;-56
2022/12/19 10:22:56;;;;;;;0.50;0.40;;;;;;;12.39;56.97;96875.25;5115809;28;20437;-56
2022/12/19 10:25:39;;;;;;;1.33;0.63;;;;;;;12.55;57.60;96874.44;5115571;28;20502;-55
2022/12/19 10:28:32;;;;;;;0.80;0.70;;;;;;;12.70;59.96;96873.84;5115219;28;20911;-55
2022/12/19 10:31:12;;;;;;;0.57;0.50;;;;;;;11.75;58.24;96798.72;5115135;28;20434;-56
2022/12/19 10:33:55;;;;;;;0.87;0.87;;;;;;;12.26;58.28;96864.94;5115243;28;20427;-55
2022/12/19 10:36:25;;;;;;;0.40;0.30;;;;;;;11.90;58.26;96863.56;5115729;28;20432;-56
2022/12/19 10:39:24;;;;;;;0.40;0.40;;;;;;;12.19;57.34;96866.97;5114957;28;20475;-56
2022/12/19 10:41:57;;;;;;;1.53;0.40;;;;;;;12.33;58.93;96860.28;5115087;28;20441;-56
2022/12/19 10:44:30;;;;;;;0.40;0.40;;;;;;;12.22;59.53;96855.03;5115353;28;20493;-56
2022/12/19 10:46:58;;;;;;;0.30;0.20;;;;;;;12.46;60.51;96859.13;5115025;28;20439;-56
2022/12/19 10:49:29;;;;;;;0.50;0.40;;;;;;;11.66;57.25;96824.84;5114887;28;20477;-56
2022/12/19 10:52:01;;;;;;;0.40;0.40;;;;;;;12.04;59.54;96838.25;5115035;28;20514;-56
2022/12/19 10:54:39;;;;;;;0.67;0.63;;;;;;;11.94;58.48;96847.94;5114996;28;20437;-56
2022/12/19 10:57:19;;;;;;;0.40;0.30;;;;;;;11.77;57.67;96842.59;5113837;28;20431;-56
2022/12/19 10:59:58;;;;;;;0.50;0.50;;;;;;;11.77;57.66;96844.44;5114531;28;20467;-56
2022/12/19 11:02:42;;;;;;;0.40;0.40;;;;;;;12.26;71.44;96837.56;5114290;28;20439;-56
2022/12/19 11:05:27;;;;;;;0.40;0.40;;;;;;;11.93;58.59;96823.22;5114312;28;20490;-55
2022/12/19 11:08:18;;;;;;;0.57;0.40;;;;;;;11.77;57.08;96839.94;5114752;28;20439;-55
2022/12/19 11:10:49;;;;;;;1.13;1.13;;;;;;;11.49;56.86;96832.75;5114562;28;20517;-55
2022/12/19 11:13:43;;;;;;;1.07;1.07;;;;;;;10.95;58.31;96731.69;5113151;28;20914;-58
2022/12/19 11:16:35;;;;;;;0.30;0.30;;;;;;;11.64;57.19;96757.88;5114237;28;20446;-56
2022/12/19 11:19:30;;;;;;;0.40;0.30;;;;;;;12.57;56.24;96831.66;5114092;28;20481;-57
2022/12/19 11:22:22;;;;;;;0.57;0.30;;;;;;;12.51;56.07;96899.91;5114314;28;20450;-57
2022/12/19 11:25:18;;;;;;;0.50;0.30;;;;;;;12.41;57.72;96829.81;5114067;28;20435;-56
2022/12/19 11:28:17;;;;;;;0.40;0.30;;;;;;;12.63;56.12;96823.47;5114151;28;20955;-57
2022/12/19 11:31:10;;;;;;;2.50;2.40;;;;;;;11.76;55.79;96824.25;5114169;28;20438;-58
2022/12/19 11:34:05;;;;;;;0.43;0.30;;;;;;;10.37;59.61;96650.50;5113804;28;20442;-57
2022/12/19 11:36:39;;;;;;;0.43;0.37;;;;;;;11.34;57.84;96823.72;5114548;28;20432;-57
2022/12/19 11:39:16;;;;;;;0.60;0.60;;;;;;;11.25;56.80;96767.56;5112825;28;20439;-57
2022/12/19 11:41:51;;;;;;;0.70;0.70;;;;;;;12.06;58.07;96811.47;5113424;28;20461;-57
2022/12/19 11:44:29;;;;;;;0.50;0.50;;;;;;;12.15;56.61;96794.06;5113874;28;20490;-57
2022/12/19 11:47:05;;;;;;;1.27;0.53;;;;;;;12.42;55.74;96810.94;5113949;28;21122;-57
2022/12/19 11:49:40;;;;;;;0.40;0.30;;;;;;;12.41;55.67;96793.38;5113603;28;21001;-57
2022/12/19 11:52:21;;;;;;;0.40;0.40;;;;;;;11.88;56.06;96762.03;5113506;28;20437;-57
2022/12/19 11:55:18;;;;;;;0.80;0.80;;;;;;;11.88;55.67;96793.09;5113680;28;20873;-56
2022/12/19 11:57:48;;;;;;;0.50;0.50;;;;;;;11.95;54.70;96807.84;5113470;28;20431;-57
2022/12/19 12:00:20;;;;;;;0.33;0.27;;;;;;;12.19;55.46;96715.44;5112992;28;20563;-57
2022/12/19 12:03:17;;;;;;;0.70;0.30;;;;;;;12.56;55.15;96785.63;5112968;28;20438;-57
2022/12/19 12:05:46;;;;;;;0.40;0.30;;;;;;;12.05;54.93;96797.38;5109608;28;20439;-57
2022/12/19 12:08:46;;;;;;;0.43;0.40;;;;;;;11.27;56.87;96732.81;5112909;28;20439;-55